Abu Dhabi, United Arab Emirates
Current Conditions -  °F | °C
As of 5:00 AM on Monday 22 Dec 2014 (Local Time) from OMAD Reporting Station
Clear Clear  
Wind Chill: 59°   Ceiling: Unl
Heat Index: 59°   Visibility: 4mi
Dew Point: 52°   Wind: 5mph
Humidity: 77%   Direction: 150°SSE
Pressure: 29.94"   Gusts: NA
Location:  24.48°N, 54.37°E
Report Text: OMAD 220100Z 15004KT 7000 NSC 15/11 Q1014 A2996 BECMG4000 HZ
Loading
Personal Weather Stations






























Interactive Weather Map New forecast layout! Learn more

10-Day Weather Forecast

Advertisements
Track Severe Weather on mobile